sensor_id;sensor_type;location;lat;lon;timestamp;P1;durP1;ratioP1;P2;durP2;ratioP2
23434;SDS011;11890;45.380;11.028;2023-03-01T00:02:12;11.77;;;6.28;;
23434;SDS011;11890;45.380;11.028;2023-03-01T00:04:40;13.88;;;6.95;;
23434;SDS011;11890;45.380;11.028;2023-03-01T00:07:09;9.35;;;5.82;;
23434;SDS011;11890;45.380;11.028;2023-03-01T00:09:38;12.18;;;6.63;;
23434;SDS011;11890;45.380;11.028;2023-03-01T00:12:07;11.07;;;6.50;;
23434;SDS011;11890;45.380;11.028;2023-03-01T00:14:49;10.63;;;5.80;;
23434;SDS011;11890;45.380;11.028;2023-03-01T00:17:17;11.93;;;5.90;;
23434;SDS011;11890;45.380;11.028;2023-03-01T00:19:45;12.13;;;6.95;;
23434;SDS011;11890;45.380;11.028;2023-03-01T00:22:13;12.98;;;6.20;;
23434;SDS011;11890;45.380;11.028;2023-03-01T00:24:41;11.07;;;6.47;;
23434;SDS011;11890;45.380;11.028;2023-03-01T00:27:08;12.13;;;6.25;;
23434;SDS011;11890;45.380;11.028;2023-03-01T00:29:36;11.20;;;6.70;;
23434;SDS011;11890;45.380;11.028;2023-03-01T00:32:04;12.38;;;7.35;;
23434;SDS011;11890;45.380;11.028;2023-03-01T00:34:32;13.05;;;6.90;;
23434;SDS011;11890;45.380;11.028;2023-03-01T00:37:00;11.48;;;7.15;;
23434;SDS011;11890;45.380;11.028;2023-03-01T00:39:32;14.55;;;6.53;;
23434;SDS011;11890;45.380;11.028;2023-03-01T00:42:00;12.25;;;6.60;;
23434;SDS011;11890;45.380;11.028;2023-03-01T00:44:28;11.00;;;6.57;;
23434;SDS011;11890;45.380;11.028;2023-03-01T00:46:56;12.60;;;6.75;;
23434;SDS011;11890;45.380;11.028;2023-03-01T00:49:24;12.20;;;7.00;;
23434;SDS011;11890;45.380;11.028;2023-03-01T00:51:55;11.35;;;7.22;;
23434;SDS011;11890;45.380;11.028;2023-03-01T00:54:23;12.00;;;7.53;;
23434;SDS011;11890;45.380;11.028;2023-03-01T00:56:51;13.90;;;7.25;;
23434;SDS011;11890;45.380;11.028;2023-03-01T00:59:19;12.50;;;7.30;;
23434;SDS011;11890;45.380;11.028;2023-03-01T01:01:47;15.98;;;7.28;;
23434;SDS011;11890;45.380;11.028;2023-03-01T01:04:15;11.60;;;6.55;;
23434;SDS011;11890;45.380;11.028;2023-03-01T01:06:44;12.73;;;7.55;;
23434;SDS011;11890;45.380;11.028;2023-03-01T01:09:14;11.38;;;7.05;;
23434;SDS011;11890;45.380;11.028;2023-03-01T01:11:49;10.07;;;6.88;;
23434;SDS011;11890;45.380;11.028;2023-03-01T01:14:18;12.98;;;7.15;;
23434;SDS011;11890;45.380;11.028;2023-03-01T01:16:47;13.63;;;7.07;;
23434;SDS011;11890;45.380;11.028;2023-03-01T01:19:16;11.88;;;6.78;;
23434;SDS011;11890;45.380;11.028;2023-03-01T01:21:44;13.50;;;7.00;;
23434;SDS011;11890;45.380;11.028;2023-03-01T01:24:12;8.57;;;6.22;;
23434;SDS011;11890;45.380;11.028;2023-03-01T01:26:40;13.32;;;7.38;;
23434;SDS011;11890;45.380;11.028;2023-03-01T01:29:08;12.35;;;6.68;;
23434;SDS011;11890;45.380;11.028;2023-03-01T01:31:37;14.35;;;7.05;;
23434;SDS011;11890;45.380;11.028;2023-03-01T01:34:06;12.52;;;6.90;;
23434;SDS011;11890;45.380;11.028;2023-03-01T01:36:34;12.40;;;7.07;;
23434;SDS011;11890;45.380;11.028;2023-03-01T01:39:03;11.52;;;7.18;;
23434;SDS011;11890;45.380;11.028;2023-03-01T01:41:31;14.00;;;7.28;;
23434;SDS011;11890;45.380;11.028;2023-03-01T01:44:11;14.18;;;6.78;;
23434;SDS011;11890;45.380;11.028;2023-03-01T01:46:46;12.35;;;7.25;;
23434;SDS011;11890;45.380;11.028;2023-03-01T01:49:17;13.93;;;7.53;;
23434;SDS011;11890;45.380;11.028;2023-03-01T01:51:47;14.18;;;6.88;;
23434;SDS011;11890;45.380;11.028;2023-03-01T01:54:18;13.10;;;7.82;;
23434;SDS011;11890;45.380;11.028;2023-03-01T01:56:49;12.63;;;6.55;;
23434;SDS011;11890;45.380;11.028;2023-03-01T01:59:19;20.80;;;7.60;;
23434;SDS011;11890;45.380;11.028;2023-03-01T02:01:51;15.98;;;7.18;;
23434;SDS011;11890;45.380;11.028;2023-03-01T02:04:20;12.75;;;6.60;;
23434;SDS011;11890;45.380;11.028;2023-03-01T02:06:50;12.13;;;6.97;;
23434;SDS011;11890;45.380;11.028;2023-03-01T02:09:20;12.65;;;7.00;;
23434;SDS011;11890;45.380;11.028;2023-03-01T02:11:50;13.35;;;7.15;;
23434;SDS011;11890;45.380;11.028;2023-03-01T02:14:19;12.00;;;6.88;;
23434;SDS011;11890;45.380;11.028;2023-03-01T02:16:46;11.55;;;6.85;;
23434;SDS011;11890;45.380;11.028;2023-03-01T02:22:03;11.68;;;7.18;;
23434;SDS011;11890;45.380;11.028;2023-03-01T02:24:38;15.07;;;7.63;;
23434;SDS011;11890;45.380;11.028;2023-03-01T02:29:35;12.50;;;7.22;;
23434;SDS011;11890;45.380;11.028;2023-03-01T02:32:02;13.88;;;7.88;;
23434;SDS011;11890;45.380;11.028;2023-03-01T02:34:31;13.88;;;6.97;;
23434;SDS011;11890;45.380;11.028;2023-03-01T02:37:01;19.50;;;8.27;;
23434;SDS011;11890;45.380;11.028;2023-03-01T02:39:37;13.70;;;7.20;;
23434;SDS011;11890;45.380;11.028;2023-03-01T02:42:11;16.13;;;8.50;;
23434;SDS011;11890;45.380;11.028;2023-03-01T02:44:40;14.73;;;8.13;;
23434;SDS011;11890;45.380;11.028;2023-03-01T02:47:11;19.73;;;8.30;;
23434;SDS011;11890;45.380;11.028;2023-03-01T02:49:40;20.17;;;9.23;;
23434;SDS011;11890;45.380;11.028;2023-03-01T02:57:28;20.95;;;9.77;;
23434;SDS011;11890;45.380;11.028;2023-03-01T02:59:57;15.20;;;8.45;;
23434;SDS011;11890;45.380;11.028;2023-03-01T03:02:27;19.75;;;10.73;;
23434;SDS011;11890;45.380;11.028;2023-03-01T03:05:12;18.73;;;10.60;;
23434;SDS011;11890;45.380;11.028;2023-03-01T03:07:42;21.13;;;10.00;;
23434;SDS011;11890;45.380;11.028;2023-03-01T03:10:12;21.50;;;11.40;;
23434;SDS011;11890;45.380;11.028;2023-03-01T03:12:40;19.58;;;10.80;;
23434;SDS011;11890;45.380;11.028;2023-03-01T03:15:09;20.58;;;10.15;;
23434;SDS011;11890;45.380;11.028;2023-03-01T03:17:40;18.73;;;10.13;;
23434;SDS011;11890;45.380;11.028;2023-03-01T03:20:12;22.85;;;10.65;;
23434;SDS011;11890;45.380;11.028;2023-03-01T03:22:46;18.88;;;9.30;;
23434;SDS011;11890;45.380;11.028;2023-03-01T03:25:14;18.70;;;10.55;;
23434;SDS011;11890;45.380;11.028;2023-03-01T03:27:43;19.35;;;10.70;;
23434;SDS011;11890;45.380;11.028;2023-03-01T03:30:16;21.17;;;10.85;;
23434;SDS011;11890;45.380;11.028;2023-03-01T03:32:48;19.83;;;11.75;;
23434;SDS011;11890;45.380;11.028;2023-03-01T03:35:27;22.77;;;12.50;;
23434;SDS011;11890;45.380;11.028;2023-03-01T03:38:03;26.67;;;13.13;;
23434;SDS011;11890;45.380;11.028;2023-03-01T03:43:14;22.98;;;11.98;;
23434;SDS011;11890;45.380;11.028;2023-03-01T03:45:43;23.10;;;12.88;;
23434;SDS011;11890;45.380;11.028;2023-03-01T03:48:12;20.77;;;12.07;;
23434;SDS011;11890;45.380;11.028;2023-03-01T03:50:40;22.30;;;12.75;;
23434;SDS011;11890;45.380;11.028;2023-03-01T03:53:11;22.95;;;12.80;;
23434;SDS011;11890;45.380;11.028;2023-03-01T03:55:42;21.35;;;11.70;;
23434;SDS011;11890;45.380;11.028;2023-03-01T03:58:11;24.45;;;12.35;;
23434;SDS011;11890;45.380;11.028;2023-03-01T04:00:40;26.42;;;12.75;;
23434;SDS011;11890;45.380;11.028;2023-03-01T04:03:09;22.35;;;12.00;;
23434;SDS011;11890;45.380;11.028;2023-03-01T04:05:37;23.52;;;11.45;;
23434;SDS011;11890;45.380;11.028;2023-03-01T04:08:07;21.73;;;12.02;;
23434;SDS011;11890;45.380;11.028;2023-03-01T04:10:37;21.00;;;10.88;;
23434;SDS011;11890;45.380;11.028;2023-03-01T04:13:06;19.52;;;11.18;;
23434;SDS011;11890;45.380;11.028;2023-03-01T04:15:34;19.75;;;10.82;;
23434;SDS011;11890;45.380;11.028;2023-03-01T04:18:02;20.70;;;10.68;;
23434;SDS011;11890;45.380;11.028;2023-03-01T04:20:31;22.63;;;10.75;;
23434;SDS011;11890;45.380;11.028;2023-03-01T04:23:06;26.25;;;12.13;;
23434;SDS011;11890;45.380;11.028;2023-03-01T04:25:38;26.70;;;11.60;;
23434;SDS011;11890;45.380;11.028;2023-03-01T04:28:07;20.33;;;12.07;;
23434;SDS011;11890;45.380;11.028;2023-03-01T04:30:35;25.58;;;11.80;;
23434;SDS011;11890;45.380;11.028;2023-03-01T04:33:07;20.38;;;11.43;;
23434;SDS011;11890;45.380;11.028;2023-03-01T04:35:35;23.83;;;12.40;;
23434;SDS011;11890;45.380;11.028;2023-03-01T04:38:04;23.90;;;11.85;;
23434;SDS011;11890;45.380;11.028;2023-03-01T04:40:32;22.15;;;11.85;;
23434;SDS011;11890;45.380;11.028;2023-03-01T04:43:00;22.55;;;12.27;;
23434;SDS011;11890;45.380;11.028;2023-03-01T04:45:28;23.58;;;11.45;;
23434;SDS011;11890;45.380;11.028;2023-03-01T04:47:58;22.58;;;11.43;;
23434;SDS011;11890;45.380;11.028;2023-03-01T04:50:34;20.48;;;10.88;;
23434;SDS011;11890;45.380;11.028;2023-03-01T04:53:09;21.60;;;11.32;;
23434;SDS011;11890;45.380;11.028;2023-03-01T04:55:37;22.35;;;12.18;;
23434;SDS011;11890;45.380;11.028;2023-03-01T04:58:05;18.80;;;10.75;;
23434;SDS011;11890;45.380;11.028;2023-03-01T05:00:33;18.85;;;10.20;;
23434;SDS011;11890;45.380;11.028;2023-03-01T05:03:01;22.38;;;12.02;;
23434;SDS011;11890;45.380;11.028;2023-03-01T05:05:32;25.08;;;11.70;;
23434;SDS011;11890;45.380;11.028;2023-03-01T05:08:01;22.38;;;10.95;;
23434;SDS011;11890;45.380;11.028;2023-03-01T05:10:30;22.38;;;12.02;;
23434;SDS011;11890;45.380;11.028;2023-03-01T05:12:59;33.75;;;12.95;;
23434;SDS011;11890;45.380;11.028;2023-03-01T05:15:28;18.73;;;10.13;;
23434;SDS011;11890;45.380;11.028;2023-03-01T05:17:57;20.42;;;11.00;;
23434;SDS011;11890;45.380;11.028;2023-03-01T05:20:27;24.58;;;10.70;;
23434;SDS011;11890;45.380;11.028;2023-03-01T05:22:56;21.08;;;10.75;;
23434;SDS011;11890;45.380;11.028;2023-03-01T05:25:25;21.15;;;11.25;;
23434;SDS011;11890;45.380;11.028;2023-03-01T05:27:54;19.25;;;10.50;;
23434;SDS011;11890;45.380;11.028;2023-03-01T05:30:22;18.20;;;10.48;;
23434;SDS011;11890;45.380;11.028;2023-03-01T05:32:50;24.77;;;11.13;;
23434;SDS011;11890;45.380;11.028;2023-03-01T05:35:22;20.10;;;10.85;;
23434;SDS011;11890;45.380;11.028;2023-03-01T05:37:51;21.10;;;12.20;;
23434;SDS011;11890;45.380;11.028;2023-03-01T05:40:20;24.20;;;12.80;;
23434;SDS011;11890;45.380;11.028;2023-03-01T05:42:48;59.10;;;29.00;;
23434;SDS011;11890;45.380;11.028;2023-03-01T05:45:17;24.17;;;13.05;;
23434;SDS011;11890;45.380;11.028;2023-03-01T05:47:46;23.77;;;11.55;;
23434;SDS011;11890;45.380;11.028;2023-03-01T05:50:17;26.20;;;12.80;;
23434;SDS011;11890;45.380;11.028;2023-03-01T05:52:46;25.08;;;13.23;;
23434;SDS011;11890;45.380;11.028;2023-03-01T05:55:16;27.08;;;13.38;;
23434;SDS011;11890;45.380;11.028;2023-03-01T05:57:44;27.88;;;13.95;;
23434;SDS011;11890;45.380;11.028;2023-03-01T06:00:13;25.75;;;13.18;;
23434;SDS011;11890;45.380;11.028;2023-03-01T06:02:42;23.80;;;13.35;;
23434;SDS011;11890;45.380;11.028;2023-03-01T06:05:12;24.95;;;13.55;;
23434;SDS011;11890;45.380;11.028;2023-03-01T06:07:40;25.23;;;13.38;;
23434;SDS011;11890;45.380;11.028;2023-03-01T06:10:10;28.25;;;14.43;;
23434;SDS011;11890;45.380;11.028;2023-03-01T06:12:39;24.85;;;14.27;;
23434;SDS011;11890;45.380;11.028;2023-03-01T06:15:10;29.00;;;14.60;;
23434;SDS011;11890;45.380;11.028;2023-03-01T06:17:39;29.25;;;15.20;;
23434;SDS011;11890;45.380;11.028;2023-03-01T06:20:09;34.47;;;13.82;;
23434;SDS011;11890;45.380;11.028;2023-03-01T06:22:38;27.20;;;13.82;;
23434;SDS011;11890;45.380;11.028;2023-03-01T06:25:06;29.13;;;15.07;;
23434;SDS011;11890;45.380;11.028;2023-03-01T06:27:34;28.52;;;15.57;;
23434;SDS011;11890;45.380;11.028;2023-03-01T06:30:11;25.55;;;14.60;;
23434;SDS011;11890;45.380;11.028;2023-03-01T06:32:49;29.88;;;15.68;;
23434;SDS011;11890;45.380;11.028;2023-03-01T06:35:20;29.73;;;15.48;;
23434;SDS011;11890;45.380;11.028;2023-03-01T06:37:48;32.75;;;15.73;;
23434;SDS011;11890;45.380;11.028;2023-03-01T06:40:17;32.08;;;16.30;;
23434;SDS011;11890;45.380;11.028;2023-03-01T06:42:47;28.35;;;15.95;;
23434;SDS011;11890;45.380;11.028;2023-03-01T06:45:19;25.55;;;15.18;;
23434;SDS011;11890;45.380;11.028;2023-03-01T06:47:48;26.88;;;16.27;;
23434;SDS011;11890;45.380;11.028;2023-03-01T06:50:16;36.03;;;17.33;;
23434;SDS011;11890;45.380;11.028;2023-03-01T06:52:45;28.83;;;15.95;;
23434;SDS011;11890;45.380;11.028;2023-03-01T06:55:12;30.00;;;15.70;;
23434;SDS011;11890;45.380;11.028;2023-03-01T06:57:40;29.33;;;15.43;;
23434;SDS011;11890;45.380;11.028;2023-03-01T07:00:08;28.23;;;14.77;;
23434;SDS011;11890;45.380;11.028;2023-03-01T07:02:37;29.60;;;16.33;;
23434;SDS011;11890;45.380;11.028;2023-03-01T07:05:05;33.75;;;17.77;;
23434;SDS011;11890;45.380;11.028;2023-03-01T07:07:33;26.60;;;15.10;;
23434;SDS011;11890;45.380;11.028;2023-03-01T07:10:01;26.38;;;15.02;;
23434;SDS011;11890;45.380;11.028;2023-03-01T07:12:29;30.13;;;16.50;;
23434;SDS011;11890;45.380;11.028;2023-03-01T07:14:57;30.70;;;16.10;;
23434;SDS011;11890;45.380;11.028;2023-03-01T07:17:27;27.80;;;15.90;;
23434;SDS011;11890;45.380;11.028;2023-03-01T07:19:55;30.60;;;18.50;;
23434;SDS011;11890;45.380;11.028;2023-03-01T07:22:23;34.28;;;17.42;;
23434;SDS011;11890;45.380;11.028;2023-03-01T07:24:51;32.22;;;16.90;;
23434;SDS011;11890;45.380;11.028;2023-03-01T07:27:19;28.10;;;16.35;;
23434;SDS011;11890;45.380;11.028;2023-03-01T07:29:49;33.33;;;17.13;;
23434;SDS011;11890;45.380;11.028;2023-03-01T07:32:17;28.38;;;15.63;;
23434;SDS011;11890;45.380;11.028;2023-03-01T07:34:46;28.02;;;15.68;;
23434;SDS011;11890;45.380;11.028;2023-03-01T07:37:14;28.65;;;16.55;;
23434;SDS011;11890;45.380;11.028;2023-03-01T07:39:43;37.30;;;17.48;;
23434;SDS011;11890;45.380;11.028;2023-03-01T07:42:11;32.42;;;17.13;;
23434;SDS011;11890;45.380;11.028;2023-03-01T07:44:39;30.55;;;16.58;;
23434;SDS011;11890;45.380;11.028;2023-03-01T07:47:08;33.88;;;17.90;;
23434;SDS011;11890;45.380;11.028;2023-03-01T07:49:36;28.90;;;17.23;;
23434;SDS011;11890;45.380;11.028;2023-03-01T07:52:04;34.90;;;16.88;;
23434;SDS011;11890;45.380;11.028;2023-03-01T07:54:32;34.97;;;17.00;;
23434;SDS011;11890;45.380;11.028;2023-03-01T07:57:00;27.52;;;16.30;;
23434;SDS011;11890;45.380;11.028;2023-03-01T07:59:28;31.70;;;17.40;;
23434;SDS011;11890;45.380;11.028;2023-03-01T08:01:56;30.52;;;16.48;;
23434;SDS011;11890;45.380;11.028;2023-03-01T08:04:24;28.90;;;15.52;;
23434;SDS011;11890;45.380;11.028;2023-03-01T08:06:54;28.20;;;15.80;;
23434;SDS011;11890;45.380;11.028;2023-03-01T08:09:22;28.52;;;15.25;;
23434;SDS011;11890;45.380;11.028;2023-03-01T08:11:50;28.50;;;15.68;;
23434;SDS011;11890;45.380;11.028;2023-03-01T08:14:21;29.23;;;15.55;;
23434;SDS011;11890;45.380;11.028;2023-03-01T08:16:49;33.40;;;16.17;;
23434;SDS011;11890;45.380;11.028;2023-03-01T08:19:17;32.65;;;16.85;;
23434;SDS011;11890;45.380;11.028;2023-03-01T08:21:45;28.20;;;16.23;;
23434;SDS011;11890;45.380;11.028;2023-03-01T08:24:16;31.30;;;15.85;;
23434;SDS011;11890;45.380;11.028;2023-03-01T08:26:44;29.60;;;16.23;;
23434;SDS011;11890;45.380;11.028;2023-03-01T08:29:12;28.42;;;15.95;;
23434;SDS011;11890;45.380;11.028;2023-03-01T08:31:40;29.35;;;16.35;;
23434;SDS011;11890;45.380;11.028;2023-03-01T08:34:10;26.58;;;14.60;;
23434;SDS011;11890;45.380;11.028;2023-03-01T08:36:39;28.52;;;15.30;;
23434;SDS011;11890;45.380;11.028;2023-03-01T08:39:08;27.05;;;16.27;;
23434;SDS011;11890;45.380;11.028;2023-03-01T08:41:36;30.27;;;16.85;;
23434;SDS011;11890;45.380;11.028;2023-03-01T08:44:04;31.80;;;15.75;;
23434;SDS011;11890;45.380;11.028;2023-03-01T08:46:37;29.50;;;16.50;;
23434;SDS011;11890;45.380;11.028;2023-03-01T08:49:12;30.23;;;16.45;;
23434;SDS011;11890;45.380;11.028;2023-03-01T08:51:40;32.95;;;17.60;;
23434;SDS011;11890;45.380;11.028;2023-03-01T08:54:12;30.23;;;17.38;;
23434;SDS011;11890;45.380;11.028;2023-03-01T08:56:41;33.88;;;17.80;;
23434;SDS011;11890;45.380;11.028;2023-03-01T08:59:10;32.33;;;18.17;;
23434;SDS011;11890;45.380;11.028;2023-03-01T09:01:38;34.75;;;17.88;;
23434;SDS011;11890;45.380;11.028;2023-03-01T09:04:07;31.50;;;17.83;;
23434;SDS011;11890;45.380;11.028;2023-03-01T09:06:33;29.77;;;17.40;;
23434;SDS011;11890;45.380;11.028;2023-03-01T09:09:02;33.33;;;18.20;;
23434;SDS011;11890;45.380;11.028;2023-03-01T09:11:30;35.53;;;18.80;;
23434;SDS011;11890;45.380;11.028;2023-03-01T09:14:00;33.13;;;18.25;;
23434;SDS011;11890;45.380;11.028;2023-03-01T09:16:28;29.95;;;18.05;;
23434;SDS011;11890;45.380;11.028;2023-03-01T09:18:57;33.08;;;19.70;;
23434;SDS011;11890;45.380;11.028;2023-03-01T09:21:25;32.53;;;18.13;;
23434;SDS011;11890;45.380;11.028;2023-03-01T09:24:06;40.17;;;21.30;;
23434;SDS011;11890;45.380;11.028;2023-03-01T09:26:35;31.30;;;18.52;;
23434;SDS011;11890;45.380;11.028;2023-03-01T09:29:03;30.17;;;17.95;;
23434;SDS011;11890;45.380;11.028;2023-03-01T09:31:31;33.78;;;19.73;;
23434;SDS011;11890;45.380;11.028;2023-03-01T09:34:00;33.58;;;19.38;;
23434;SDS011;11890;45.380;11.028;2023-03-01T09:36:27;36.20;;;19.50;;
23434;SDS011;11890;45.380;11.028;2023-03-01T09:38:57;33.70;;;18.85;;
23434;SDS011;11890;45.380;11.028;2023-03-01T09:46:52;34.08;;;17.73;;
23434;SDS011;11890;45.380;11.028;2023-03-01T09:49:30;32.60;;;17.73;;
23434;SDS011;11890;45.380;11.028;2023-03-01T09:52:00;34.72;;;19.23;;
23434;SDS011;11890;45.380;11.028;2023-03-01T09:54:29;29.83;;;16.85;;
23434;SDS011;11890;45.380;11.028;2023-03-01T09:59:47;33.22;;;17.10;;
23434;SDS011;11890;45.380;11.028;2023-03-01T10:02:25;30.92;;;18.70;;
23434;SDS011;11890;45.380;11.028;2023-03-01T10:04:55;35.85;;;16.75;;
23434;SDS011;11890;45.380;11.028;2023-03-01T10:10:21;29.48;;;16.75;;
23434;SDS011;11890;45.380;11.028;2023-03-01T10:12:51;29.42;;;15.80;;
23434;SDS011;11890;45.380;11.028;2023-03-01T10:15:40;26.30;;;16.50;;
23434;SDS011;11890;45.380;11.028;2023-03-01T10:18:15;29.38;;;15.82;;
23434;SDS011;11890;45.380;11.028;2023-03-01T10:23:17;27.75;;;16.55;;
23434;SDS011;11890;45.380;11.028;2023-03-01T10:31:05;33.13;;;17.52;;
23434;SDS011;11890;45.380;11.028;2023-03-01T10:33:35;28.15;;;16.17;;
23434;SDS011;11890;45.380;11.028;2023-03-01T10:36:12;26.58;;;15.63;;
23434;SDS011;11890;45.380;11.028;2023-03-01T10:38:48;25.25;;;14.35;;
23434;SDS011;11890;45.380;11.028;2023-03-01T10:41:17;25.98;;;14.60;;
23434;SDS011;11890;45.380;11.028;2023-03-01T10:46:36;27.65;;;13.57;;
23434;SDS011;11890;45.380;11.028;2023-03-01T10:49:07;26.50;;;15.30;;
23434;SDS011;11890;45.380;11.028;2023-03-01T10:51:35;32.40;;;15.10;;
23434;SDS011;11890;45.380;11.028;2023-03-01T10:54:03;29.27;;;13.95;;
23434;SDS011;11890;45.380;11.028;2023-03-01T10:56:44;28.58;;;14.15;;
23434;SDS011;11890;45.380;11.028;2023-03-01T10:59:22;24.25;;;13.10;;
23434;SDS011;11890;45.380;11.028;2023-03-01T11:02:36;49.72;;;30.92;;
23434;SDS011;11890;45.380;11.028;2023-03-01T11:07:25;34.75;;;16.88;;
23434;SDS011;11890;45.380;11.028;2023-03-01T11:09:53;29.90;;;15.48;;
23434;SDS011;11890;45.380;11.028;2023-03-01T11:12:22;27.83;;;16.23;;
23434;SDS011;11890;45.380;11.028;2023-03-01T11:14:51;33.42;;;17.00;;
23434;SDS011;11890;45.380;11.028;2023-03-01T11:17:24;25.33;;;14.32;;
23434;SDS011;11890;45.380;11.028;2023-03-01T11:20:13;24.85;;;14.07;;
23434;SDS011;11890;45.380;11.028;2023-03-01T11:22:48;32.58;;;16.90;;
23434;SDS011;11890;45.380;11.028;2023-03-01T11:25:19;24.42;;;14.50;;
23434;SDS011;11890;45.380;11.028;2023-03-01T11:27:53;24.65;;;13.82;;
23434;SDS011;11890;45.380;11.028;2023-03-01T11:33:49;30.23;;;14.77;;
23434;SDS011;11890;45.380;11.028;2023-03-01T11:36:40;23.83;;;13.18;;
23434;SDS011;11890;45.380;11.028;2023-03-01T11:41:46;24.38;;;13.70;;
23434;SDS011;11890;45.380;11.028;2023-03-01T11:44:19;27.20;;;13.75;;
23434;SDS011;11890;45.380;11.028;2023-03-01T11:57:00;62.03;;;34.35;;
23434;SDS011;11890;45.380;11.028;2023-03-01T12:04:47;16.80;;;9.95;;
23434;SDS011;11890;45.380;11.028;2023-03-01T12:20:30;20.05;;;12.07;;
23434;SDS011;11890;45.380;11.028;2023-03-01T12:42:43;15.60;;;8.80;;
23434;SDS011;11890;45.380;11.028;2023-03-01T12:50:21;17.30;;;10.15;;
23434;SDS011;11890;45.380;11.028;2023-03-01T12:52:52;20.20;;;10.68;;
23434;SDS011;11890;45.380;11.028;2023-03-01T13:06:22;14.68;;;4.28;;
23434;SDS011;11890;45.380;11.028;2023-03-01T13:11:41;12.60;;;5.80;;
23434;SDS011;11890;45.380;11.028;2023-03-01T13:16:51;14.57;;;4.90;;
23434;SDS011;11890;45.380;11.028;2023-03-01T13:19:26;13.27;;;4.20;;
23434;SDS011;11890;45.380;11.028;2023-03-01T13:21:59;14.80;;;4.32;;
23434;SDS011;11890;45.380;11.028;2023-03-01T13:24:29;9.35;;;4.20;;
23434;SDS011;11890;45.380;11.028;2023-03-01T13:29:43;12.55;;;4.93;;
23434;SDS011;11890;45.380;11.028;2023-03-01T13:32:21;11.32;;;4.65;;
23434;SDS011;11890;45.380;11.028;2023-03-01T13:37:40;13.35;;;5.15;;
23434;SDS011;11890;45.380;11.028;2023-03-01T13:42:47;19.17;;;5.57;;
23434;SDS011;11890;45.380;11.028;2023-03-01T13:48:02;9.63;;;4.72;;
23434;SDS011;11890;45.380;11.028;2023-03-01T13:50:37;10.50;;;5.22;;
23434;SDS011;11890;45.380;11.028;2023-03-01T13:53:10;9.50;;;5.05;;
23434;SDS011;11890;45.380;11.028;2023-03-01T13:55:42;12.35;;;5.00;;
23434;SDS011;11890;45.380;11.028;2023-03-01T14:00:55;9.30;;;4.60;;
23434;SDS011;11890;45.380;11.028;2023-03-01T14:03:24;10.35;;;5.25;;
23434;SDS011;11890;45.380;11.028;2023-03-01T14:06:01;10.80;;;5.53;;
23434;SDS011;11890;45.380;11.028;2023-03-01T14:08:41;9.77;;;5.38;;
23434;SDS011;11890;45.380;11.028;2023-03-01T14:11:21;16.05;;;5.03;;
23434;SDS011;11890;45.380;11.028;2023-03-01T14:19:14;8.43;;;4.72;;
23434;SDS011;11890;45.380;11.028;2023-03-01T14:21:59;10.00;;;5.53;;
23434;SDS011;11890;45.380;11.028;2023-03-01T14:24:31;10.45;;;5.55;;
23434;SDS011;11890;45.380;11.028;2023-03-01T14:27:02;12.55;;;5.57;;
23434;SDS011;11890;45.380;11.028;2023-03-01T14:29:37;11.30;;;4.75;;
23434;SDS011;11890;45.380;11.028;2023-03-01T14:32:09;11.80;;;4.53;;
23434;SDS011;11890;45.380;11.028;2023-03-01T14:34:42;8.55;;;4.25;;
23434;SDS011;11890;45.380;11.028;2023-03-01T14:37:11;14.50;;;4.90;;
23434;SDS011;11890;45.380;11.028;2023-03-01T14:39:39;11.63;;;4.60;;
23434;SDS011;11890;45.380;11.028;2023-03-01T14:42:07;9.20;;;4.65;;
23434;SDS011;11890;45.380;11.028;2023-03-01T14:44:46;11.93;;;4.90;;
23434;SDS011;11890;45.380;11.028;2023-03-01T14:47:15;12.73;;;4.60;;
23434;SDS011;11890;45.380;11.028;2023-03-01T14:49:54;10.55;;;5.03;;
23434;SDS011;11890;45.380;11.028;2023-03-01T14:52:25;11.77;;;4.82;;
23434;SDS011;11890;45.380;11.028;2023-03-01T14:54:55;10.02;;;4.22;;
23434;SDS011;11890;45.380;11.028;2023-03-01T14:57:24;12.23;;;4.00;;
23434;SDS011;11890;45.380;11.028;2023-03-01T14:59:53;12.90;;;4.93;;
23434;SDS011;11890;45.380;11.028;2023-03-01T15:02:23;8.73;;;4.43;;
23434;SDS011;11890;45.380;11.028;2023-03-01T15:04:52;13.85;;;4.93;;
23434;SDS011;11890;45.380;11.028;2023-03-01T15:07:27;9.07;;;4.70;;
23434;SDS011;11890;45.380;11.028;2023-03-01T15:09:57;10.25;;;4.95;;
23434;SDS011;11890;45.380;11.028;2023-03-01T15:14:53;9.75;;;5.22;;
23434;SDS011;11890;45.380;11.028;2023-03-01T15:17:31;21.08;;;12.27;;
23434;SDS011;11890;45.380;11.028;2023-03-01T15:20:02;103.70;;;51.92;;
23434;SDS011;11890;45.380;11.028;2023-03-01T15:22:31;30.50;;;16.27;;
23434;SDS011;11890;45.380;11.028;2023-03-01T15:24:59;12.40;;;6.65;;
23434;SDS011;11890;45.380;11.028;2023-03-01T15:27:27;16.30;;;7.07;;
23434;SDS011;11890;45.380;11.028;2023-03-01T15:29:56;15.90;;;6.38;;
23434;SDS011;11890;45.380;11.028;2023-03-01T15:34:54;9.63;;;6.00;;
23434;SDS011;11890;45.380;11.028;2023-03-01T15:37:39;14.55;;;6.72;;
23434;SDS011;11890;45.380;11.028;2023-03-01T15:40:26;12.27;;;6.10;;
23434;SDS011;11890;45.380;11.028;2023-03-01T15:45:27;10.80;;;5.70;;
23434;SDS011;11890;45.380;11.028;2023-03-01T15:50:26;15.45;;;7.03;;
23434;SDS011;11890;45.380;11.028;2023-03-01T15:52:55;18.90;;;8.13;;
23434;SDS011;11890;45.380;11.028;2023-03-01T15:55:24;13.73;;;6.05;;
23434;SDS011;11890;45.380;11.028;2023-03-01T15:58:00;13.85;;;6.72;;
23434;SDS011;11890;45.380;11.028;2023-03-01T16:00:29;14.48;;;8.48;;
23434;SDS011;11890;45.380;11.028;2023-03-01T16:02:58;14.77;;;7.88;;
23434;SDS011;11890;45.380;11.028;2023-03-01T16:05:30;12.38;;;6.95;;
23434;SDS011;11890;45.380;11.028;2023-03-01T16:07:58;13.95;;;6.50;;
23434;SDS011;11890;45.380;11.028;2023-03-01T16:10:27;78.95;;;32.67;;
23434;SDS011;11890;45.380;11.028;2023-03-01T16:12:55;14.13;;;7.88;;
23434;SDS011;11890;45.380;11.028;2023-03-01T16:15:24;52.78;;;21.80;;
23434;SDS011;11890;45.380;11.028;2023-03-01T16:18:07;12.25;;;6.85;;
23434;SDS011;11890;45.380;11.028;2023-03-01T16:20:44;10.77;;;6.20;;
23434;SDS011;11890;45.380;11.028;2023-03-01T16:23:23;9.18;;;6.18;;
23434;SDS011;11890;45.380;11.028;2023-03-01T16:25:51;9.80;;;5.13;;
23434;SDS011;11890;45.380;11.028;2023-03-01T16:28:20;9.85;;;5.40;;
23434;SDS011;11890;45.380;11.028;2023-03-01T16:30:47;11.35;;;5.38;;
23434;SDS011;11890;45.380;11.028;2023-03-01T16:33:16;11.65;;;5.50;;
23434;SDS011;11890;45.380;11.028;2023-03-01T16:36:00;12.68;;;5.65;;
23434;SDS011;11890;45.380;11.028;2023-03-01T16:38:30;21.85;;;13.05;;
23434;SDS011;11890;45.380;11.028;2023-03-01T16:40:59;23.90;;;11.80;;
23434;SDS011;11890;45.380;11.028;2023-03-01T16:43:30;12.77;;;8.95;;
23434;SDS011;11890;45.380;11.028;2023-03-01T16:45:59;12.77;;;7.68;;
23434;SDS011;11890;45.380;11.028;2023-03-01T16:48:27;11.32;;;7.30;;
23434;SDS011;11890;45.380;11.028;2023-03-01T16:50:57;10.73;;;7.20;;
23434;SDS011;11890;45.380;11.028;2023-03-01T16:53:26;13.30;;;7.07;;
23434;SDS011;11890;45.380;11.028;2023-03-01T16:55:54;11.95;;;6.25;;